Time;durP1;ratioP1;P1;durP2;ratioP2;P2;SDS_P1;SDS_P2;PMS_P1;PMS_P2;Temp;Humidity;BMP_temperature;BMP_pressure;BME280_temperature;BME280_humidity;BME280_pressure;Samples;Min_cycle;Max_cycle;Signal;HPM_P1;HPM_P2
2022/05/01 00:02:24;;;;;;;3.67;1.30;;;19.30;99.90;;;;;;5094735;28;20253;-67
2022/05/01 00:04:52;;;;;;;6.47;1.10;;;18.80;99.90;;;;;;5094900;28;20183;-68
2022/05/01 00:07:19;;;;;;;4.40;1.20;;;19.00;99.90;;;;;;5094366;28;20316;-68
2022/05/01 00:09:47;;;;;;;4.20;1.47;;;19.70;99.90;;;;;;5094639;28;20177;-67
2022/05/01 00:12:15;;;;;;;4.23;1.23;;;19.90;99.90;;;;;;5094515;28;20178;-67
2022/05/01 00:14:43;;;;;;;3.13;0.97;;;20.40;99.90;;;;;;5092473;28;20594;-69
2022/05/01 00:17:10;;;;;;;3.43;1.03;;;20.20;99.90;;;;;;5094102;28;20189;-69
2022/05/01 00:19:38;;;;;;;3.57;1.10;;;20.20;99.90;;;;;;5093441;28;20183;-68
2022/05/01 00:22:06;;;;;;;2.27;0.77;;;20.70;99.90;;;;;;5094119;28;20187;-68
2022/05/01 00:24:33;;;;;;;3.13;1.00;;;21.30;99.90;;;;;;5094258;28;20186;-68
2022/05/01 00:27:02;;;;;;;5.47;1.50;;;21.60;99.90;;;;;;5094396;28;20167;-68
2022/05/01 00:29:31;;;;;;;5.07;1.00;;;20.90;99.90;;;;;;5092863;28;20206;-69
2022/05/01 00:31:59;;;;;;;3.93;1.23;;;21.40;99.90;;;;;;5093972;28;20680;-68
2022/05/01 00:37:12;;;;;;;3.63;1.20;;;20.80;99.90;;;;;;5093581;28;20194;-68
2022/05/01 00:39:40;;;;;;;6.37;1.03;;;20.70;99.90;;;;;;5093988;28;20183;-68
2022/05/01 00:42:08;;;;;;;4.13;1.30;;;21.10;99.90;;;;;;5093694;28;20648;-67
2022/05/01 00:44:36;;;;;;;2.97;1.13;;;21.70;99.90;;;;;;5093925;28;20183;-69
2022/05/01 00:47:04;;;;;;;4.87;0.90;;;21.50;99.90;;;;;;5090342;28;20187;-67
2022/05/01 00:49:31;;;;;;;5.03;1.00;;;21.90;99.90;;;;;;5089891;28;20202;-67
2022/05/01 00:52:09;;;;;;;4.87;1.10;;;21.40;99.90;;;;;;5091916;28;20183;-68
2022/05/01 00:54:40;;;;;;;3.77;0.97;;;21.70;99.90;;;;;;5092182;28;20242;-68
2022/05/01 00:57:08;;;;;;;4.70;1.30;;;22.10;99.90;;;;;;5089132;28;20182;-67
2022/05/01 00:59:37;;;;;;;2.63;1.03;;;21.60;99.90;;;;;;5092485;28;20191;-67
2022/05/01 01:02:06;;;;;;;2.57;0.90;;;21.40;99.90;;;;;;5091387;28;20180;-67
2022/05/01 01:04:34;;;;;;;4.53;1.23;;;21.40;99.90;;;;;;5091985;28;20190;-67
2022/05/01 01:07:03;;;;;;;3.50;1.60;;;21.20;99.90;;;;;;5091372;28;20232;-68
2022/05/01 01:09:31;;;;;;;4.10;1.27;;;22.20;99.90;;;;;;5092145;28;20194;-68
2022/05/01 01:14:44;;;;;;;9.27;3.80;;;21.80;99.90;;;;;;5092336;28;20289;-67
2022/05/01 01:17:13;;;;;;;5.17;1.47;;;21.90;99.90;;;;;;5091696;28;20183;-67
2022/05/01 01:19:40;;;;;;;4.93;1.03;;;21.80;99.90;;;;;;5091861;28;20647;-67
2022/05/01 01:22:09;;;;;;;4.70;1.10;;;22.30;99.90;;;;;;5091964;28;20281;-68
2022/05/01 01:24:43;;;;;;;3.80;1.00;;;22.20;99.90;;;;;;5091829;28;20190;-68
2022/05/01 01:27:12;;;;;;;6.20;1.40;;;21.70;99.90;;;;;;5091913;28;20194;-67
2022/05/01 01:32:27;;;;;;;2.83;0.93;;;21.90;99.90;;;;;;5091707;28;20209;-68
2022/05/01 01:34:56;;;;;;;5.23;1.63;;;21.80;99.90;;;;;;5091855;28;20178;-68
2022/05/01 01:37:24;;;;;;;4.63;0.87;;;21.70;99.90;;;;;;5091526;28;20232;-67
2022/05/01 01:39:53;;;;;;;2.70;1.10;;;22.00;99.90;;;;;;5091998;28;20228;-67
2022/05/01 01:42:22;;;;;;;2.53;1.00;;;22.10;99.90;;;;;;5091728;28;20195;-68
2022/05/01 01:44:52;;;;;;;1.73;0.80;;;23.20;99.90;;;;;;5091629;28;20182;-67
2022/05/01 01:47:20;;;;;;;3.00;1.07;;;23.90;99.90;;;;;;5091032;28;20175;-67
2022/05/01 01:49:47;;;;;;;9.87;1.43;;;24.00;99.90;;;;;;5091750;28;20637;-67
2022/05/01 01:52:15;;;;;;;2.53;0.73;;;23.40;99.90;;;;;;5091903;28;20656;-67
2022/05/01 01:54:43;;;;;;;3.77;1.03;;;23.40;99.90;;;;;;5091504;28;20318;-66
2022/05/01 01:57:10;;;;;;;3.40;1.00;;;23.80;99.90;;;;;;5090709;28;20189;-67
2022/05/01 01:59:38;;;;;;;4.37;1.00;;;24.10;99.90;;;;;;5091547;28;20244;-66
2022/05/01 02:02:08;;;;;;;2.60;0.80;;;24.00;99.90;;;;;;5091188;28;20175;-66
2022/05/01 02:04:36;;;;;;;2.70;1.10;;;24.40;99.90;;;;;;5075852;28;20195;-67
2022/05/01 02:07:04;;;;;;;9.67;1.70;;;24.20;99.90;;;;;;5091275;28;20175;-67
2022/05/01 02:09:36;;;;;;;2.03;0.73;;;25.10;99.90;;;;;;5091377;28;20621;-67
2022/05/01 02:12:08;;;;;;;5.80;1.57;;;24.80;99.90;;;;;;5091412;28;20171;-67
2022/05/01 02:14:36;;;;;;;5.67;1.10;;;23.80;99.90;;;;;;5091435;28;20184;-67
2022/05/01 02:17:04;;;;;;;4.83;1.27;;;23.20;99.90;;;;;;5090976;28;20632;-66
2022/05/01 02:19:32;;;;;;;4.53;1.23;;;22.60;99.90;;;;;;5095280;28;20603;-66
2022/05/01 02:22:01;;;;;;;2.43;1.10;;;22.40;99.90;;;;;;5094915;28;20184;-67
2022/05/01 02:24:30;;;;;;;4.00;1.00;;;23.10;99.90;;;;;;5095516;28;20194;-68
2022/05/01 02:26:58;;;;;;;6.60;1.10;;;24.50;99.90;;;;;;5094803;28;20203;-67
2022/05/01 02:29:27;;;;;;;3.33;0.97;;;25.50;99.90;;;;;;5095280;28;20171;-68
2022/05/01 02:31:55;;;;;;;2.60;1.10;;;25.40;99.90;;;;;;5095163;28;20179;-67
2022/05/01 02:34:24;;;;;;;3.60;1.17;;;25.60;99.90;;;;;;5095209;28;20266;-67
2022/05/01 02:36:52;;;;;;;4.37;0.83;;;25.00;99.90;;;;;;5094679;28;20172;-68
2022/05/01 02:39:20;;;;;;;7.43;1.53;;;25.10;99.90;;;;;;5095073;28;20233;-66
2022/05/01 02:41:50;;;;;;;3.83;1.00;;;26.00;99.90;;;;;;5095266;28;20663;-67
2022/05/01 02:44:17;;;;;;;5.30;1.30;;;25.90;99.90;;;;;;5094497;28;20219;-68
2022/05/01 02:46:46;;;;;;;4.07;1.07;;;26.00;99.90;;;;;;5099895;28;20175;-66
2022/05/01 02:49:14;;;;;;;5.50;1.13;;;25.80;99.90;;;;;;5102649;28;20233;-67
2022/05/01 02:51:42;;;;;;;3.33;1.00;;;25.50;99.90;;;;;;5097647;28;20183;-68
2022/05/01 02:54:10;;;;;;;3.67;1.20;;;26.00;99.90;;;;;;5094692;28;20653;-67
2022/05/01 02:56:38;;;;;;;7.30;1.20;;;25.90;99.90;;;;;;5094554;28;20240;-66
2022/05/01 02:59:09;;;;;;;5.27;0.80;;;25.30;99.90;;;;;;5094979;28;20186;-66
2022/05/01 03:01:37;;;;;;;6.90;1.33;;;25.50;99.90;;;;;;5094401;28;20198;-67
2022/05/01 03:04:06;;;;;;;4.93;1.20;;;26.10;99.90;;;;;;5094325;28;20245;-67
2022/05/01 03:06:34;;;;;;;5.50;1.37;;;26.10;99.90;;;;;;5094358;28;20179;-68
2022/05/01 03:09:02;;;;;;;5.30;1.40;;;26.00;99.90;;;;;;5094564;28;20187;-67
2022/05/01 03:11:31;;;;;;;5.17;1.30;;;25.90;99.90;;;;;;5094406;28;20178;-66
2022/05/01 03:13:59;;;;;;;4.30;1.13;;;25.70;99.90;;;;;;5093802;28;20202;-66
2022/05/01 03:16:27;;;;;;;6.27;1.33;;;26.60;99.90;;;;;;5093640;28;20300;-67
2022/05/01 03:24:26;;;;;;;4.00;1.23;;;26.80;99.90;;;;;;5106226;28;20217;-66
2022/05/01 03:26:55;;;;;;;4.83;1.37;;;27.10;99.90;;;;;;5116241;28;20184;-67
2022/05/01 03:29:23;;;;;;;4.43;1.20;;;27.10;99.90;;;;;;5101038;28;20652;-67
2022/05/01 03:31:50;;;;;;;6.47;1.47;;;27.30;99.90;;;;;;5102927;28;20274;-67
2022/05/01 03:34:22;;;;;;;8.60;1.40;;;26.90;99.90;;;;;;5094169;28;20182;-66
2022/05/01 03:36:50;;;;;;;7.47;1.67;;;26.30;99.90;;;;;;5093990;28;20722;-67
2022/05/01 03:39:18;;;;;;;7.07;1.33;;;26.80;99.90;;;;;;5092747;28;20186;-67
2022/05/01 03:41:45;;;;;;;7.40;1.50;;;27.30;99.90;;;;;;5094077;28;20179;-66
2022/05/01 03:44:13;;;;;;;8.53;1.73;;;27.20;99.90;;;;;;5093785;28;20634;-65
2022/05/01 03:46:41;;;;;;;8.30;1.97;;;27.50;99.90;;;;;;5073803;28;20172;-66
2022/05/01 03:49:12;;;;;;;7.37;1.90;;;26.70;99.90;;;;;;5073603;28;20286;-66
2022/05/01 03:51:39;;;;;;;9.57;1.60;;;26.40;99.90;;;;;;5073606;28;20188;-65
2022/05/01 03:54:07;;;;;;;15.07;1.70;;;26.40;99.90;;;;;;5073461;28;20297;-66
2022/05/01 03:56:35;;;;;;;11.97;1.40;;;26.70;99.90;;;;;;5073685;28;20191;-66
2022/05/01 03:59:04;;;;;;;10.83;1.60;;;27.00;99.90;;;;;;5073526;28;20562;-67
2022/05/01 04:01:33;;;;;;;8.47;1.97;;;26.70;99.90;;;;;;5073494;28;20546;-67
2022/05/01 04:04:01;;;;;;;6.67;1.40;;;26.70;99.90;;;;;;5071960;28;20234;-68
2022/05/01 04:06:29;;;;;;;11.13;2.00;;;26.80;99.90;;;;;;5091529;28;20218;-66
2022/05/01 04:08:57;;;;;;;10.87;1.90;;;26.40;99.90;;;;;;5093738;28;20177;-65
2022/05/01 04:11:25;;;;;;;7.93;1.30;;;26.30;99.90;;;;;;5093419;28;20233;-66
2022/05/01 04:13:53;;;;;;;8.70;1.93;;;26.50;99.90;;;;;;5093351;28;20644;-66
2022/05/01 04:16:21;;;;;;;6.17;1.57;;;26.40;99.90;;;;;;5093118;28;20187;-66
2022/05/01 04:18:48;;;;;;;5.63;1.60;;;26.30;99.90;;;;;;5093368;28;20225;-65
2022/05/01 04:21:16;;;;;;;6.27;2.10;;;26.50;99.90;;;;;;5092882;28;20195;-66
2022/05/01 04:23:44;;;;;;;5.13;1.50;;;26.80;99.90;;;;;;5093120;28;20691;-66
2022/05/01 04:26:11;;;;;;;5.70;1.57;;;26.30;99.90;;;;;;5092981;28;20184;-66
2022/05/01 04:29:35;;;;;;;7.63;1.80;;;26.10;99.90;;;;;;5093317;28;20209;-68
2022/05/01 04:31:27;;;;;;;9.47;1.80;;;26.10;99.90;;;;;;5092953;28;20640;-67
2022/05/01 04:33:55;;;;;;;9.40;1.90;;;26.30;99.90;;;;;;5093033;28;20706;-67
2022/05/01 04:36:23;;;;;;;5.30;1.53;;;26.00;99.90;;;;;;5092011;28;20186;-65
2022/05/01 04:38:51;;;;;;;7.03;1.57;;;25.90;99.90;;;;;;5093035;28;20692;-66
2022/05/01 04:41:18;;;;;;;7.60;2.13;;;25.20;99.90;;;;;;5092699;28;20590;-67
2022/05/01 04:43:47;;;;;;;6.70;1.83;;;25.50;99.90;;;;;;5092634;28;20219;-67
2022/05/01 04:46:14;;;;;;;9.70;1.97;;;25.90;99.90;;;;;;5092439;28;20183;-68
2022/05/01 04:48:42;;;;;;;6.63;1.50;;;25.80;99.90;;;;;;5092602;28;20202;-68
2022/05/01 04:51:10;;;;;;;5.67;1.60;;;25.80;99.90;;;;;;5092732;28;20167;-66
2022/05/01 04:53:38;;;;;;;8.40;1.23;;;25.90;99.90;;;;;;5092743;28;20182;-65
2022/05/01 04:58:52;;;;;;;7.03;1.60;;;26.20;99.90;;;;;;5092460;28;20663;-66
2022/05/01 05:01:19;;;;;;;5.97;1.30;;;26.40;99.90;;;;;;5092489;28;20175;-67
2022/05/01 05:03:47;;;;;;;6.60;1.83;;;26.70;99.90;;;;;;5092403;28;20211;-67
2022/05/01 05:06:15;;;;;;;9.93;2.00;;;26.20;99.90;;;;;;5092450;28;20617;-67
2022/05/01 05:11:28;;;;;;;5.87;1.70;;;25.50;99.90;;;;;;5092271;28;20726;-67
2022/05/01 05:13:57;;;;;;;9.67;2.10;;;25.80;99.90;;;;;;5092418;28;20203;-67
2022/05/01 05:16:25;;;;;;;6.90;1.93;;;26.20;99.90;;;;;;5091891;28;20175;-66
2022/05/01 05:18:52;;;;;;;8.60;1.33;;;26.00;99.90;;;;;;5092178;28;20193;-67
2022/05/01 05:21:20;;;;;;;8.57;1.50;;;26.00;99.90;;;;;;5091976;28;20179;-66
2022/05/01 05:23:48;;;;;;;6.43;1.37;;;25.50;99.90;;;;;;5091675;28;20261;-66
2022/05/01 05:26:16;;;;;;;5.77;1.43;;;24.90;99.90;;;;;;5092197;28;20178;-67
2022/05/01 05:28:43;;;;;;;5.30;1.67;;;24.50;99.90;;;;;;5092263;28;20202;-66
2022/05/01 05:31:11;;;;;;;6.83;2.10;;;24.10;99.90;;;;;;5091625;28;20213;-66
2022/05/01 05:33:39;;;;;;;9.00;2.23;;;24.00;99.90;;;;;;5091688;28;20625;-67
2022/05/01 05:36:07;;;;;;;6.20;1.90;;;24.30;99.90;;;;;;5091948;28;20174;-66
2022/05/01 05:38:37;;;;;;;6.20;1.73;;;24.30;99.90;;;;;;5092028;28;20652;-66
2022/05/01 05:41:05;;;;;;;7.67;1.50;;;24.70;99.90;;;;;;5092342;28;20550;-67
2022/05/01 05:43:33;;;;;;;8.33;2.53;;;25.00;99.90;;;;;;5089783;28;20337;-67
2022/05/01 05:46:01;;;;;;;7.20;1.50;;;24.70;99.90;;;;;;5092057;28;20182;-66
2022/05/01 05:48:28;;;;;;;6.00;1.80;;;24.30;99.90;;;;;;5090457;28;20535;-65
2022/05/01 05:50:56;;;;;;;10.13;2.10;;;24.30;99.90;;;;;;5090701;28;20287;-65
2022/05/01 05:53:24;;;;;;;9.23;1.80;;;24.20;99.90;;;;;;5093665;28;20197;-65
2022/05/01 05:55:52;;;;;;;8.23;1.83;;;24.00;99.90;;;;;;5094716;28;20337;-66
2022/05/01 05:58:19;;;;;;;8.77;1.60;;;23.60;99.90;;;;;;5096125;28;20186;-66
2022/05/01 06:00:47;;;;;;;9.27;1.80;;;22.90;99.90;;;;;;5095994;28;20183;-66
2022/05/01 06:03:15;;;;;;;9.93;2.30;;;22.40;99.90;;;;;;5095397;28;20233;-67
2022/05/01 06:05:42;;;;;;;5.70;2.13;;;22.30;99.90;;;;;;5096096;28;20175;-66
2022/05/01 06:08:10;;;;;;;7.20;1.73;;;22.00;99.90;;;;;;5095631;28;20306;-66
2022/05/01 06:10:41;;;;;;;10.80;1.77;;;21.90;99.90;;;;;;5095996;28;20686;-66
2022/05/01 06:13:08;;;;;;;6.13;1.60;;;21.80;99.90;;;;;;5095244;28;20187;-66
2022/05/01 06:15:38;;;;;;;11.33;2.33;;;21.70;99.90;;;;;;5094500;28;20218;-67
2022/05/01 06:18:06;;;;;;;6.33;1.60;;;21.60;99.90;;;;;;5095667;28;20187;-67
2022/05/01 06:20:33;;;;;;;8.50;1.70;;;21.50;99.90;;;;;;5095713;28;20181;-67
2022/05/01 06:23:01;;;;;;;9.10;2.03;;;21.50;99.90;;;;;;5095487;28;20214;-67
2022/05/01 06:25:29;;;;;;;9.80;2.00;;;21.40;99.90;;;;;;5095443;28;20183;-67
2022/05/01 06:27:57;;;;;;;10.10;2.23;;;21.40;99.90;;;;;;5095548;28;20590;-67
2022/05/01 06:30:24;;;;;;;8.77;2.00;;;21.10;99.90;;;;;;5095591;28;20258;-67
2022/05/01 06:32:52;;;;;;;10.53;1.93;;;21.10;99.90;;;;;;5094222;28;20899;-66
2022/05/01 06:35:20;;;;;;;6.60;2.27;;;21.10;99.90;;;;;;5095072;28;20198;-66
2022/05/01 06:37:48;;;;;;;9.83;2.20;;;21.10;99.90;;;;;;5095008;28;20256;-66
2022/05/01 06:40:15;;;;;;;11.33;1.60;;;21.00;99.90;;;;;;5095271;28;20198;-66
2022/05/01 06:42:43;;;;;;;7.27;2.13;;;21.10;99.90;;;;;;5094005;28;20218;-66
2022/05/01 06:45:11;;;;;;;9.23;1.83;;;21.00;99.90;;;;;;5094969;28;20243;-66
2022/05/01 06:47:38;;;;;;;5.57;2.10;;;21.10;99.90;;;;;;5095161;28;20632;-66
2022/05/01 06:50:06;;;;;;;6.97;1.60;;;21.00;99.90;;;;;;5094860;28;20597;-66
2022/05/01 06:52:34;;;;;;;6.80;2.40;;;20.80;99.90;;;;;;5095232;28;20171;-66
2022/05/01 06:55:02;;;;;;;9.77;1.60;;;20.70;99.90;;;;;;5094496;28;20226;-67
2022/05/01 06:57:29;;;;;;;7.77;1.93;;;20.40;99.90;;;;;;5094942;28;20176;-66
2022/05/01 06:59:57;;;;;;;8.90;2.27;;;20.20;99.90;;;;;;5094998;28;20180;-66
2022/05/01 07:02:25;;;;;;;10.80;2.30;;;20.10;99.90;;;;;;5094513;28;20197;-66
2022/05/01 07:04:53;;;;;;;7.40;1.80;;;20.00;99.90;;;;;;5093309;28;20613;-67
2022/05/01 07:07:20;;;;;;;6.63;1.70;;;20.00;99.90;;;;;;5094508;28;20179;-67
2022/05/01 07:09:50;;;;;;;6.80;2.20;;;20.00;99.90;;;;;;5094884;28;20183;-67
2022/05/01 07:12:18;;;;;;;6.77;1.77;;;20.00;99.90;;;;;;5094661;28;20172;-67
2022/05/01 07:14:46;;;;;;;4.30;1.90;;;20.00;99.90;;;;;;5093019;28;20670;-67
2022/05/01 07:17:13;;;;;;;9.37;2.43;;;19.90;99.90;;;;;;5094673;28;20179;-67
2022/05/01 07:19:41;;;;;;;6.57;1.87;;;19.90;99.90;;;;;;5094519;28;20549;-66
2022/05/01 07:22:09;;;;;;;9.07;2.30;;;19.80;99.90;;;;;;5094366;28;20212;-66
2022/05/01 07:24:36;;;;;;;8.23;1.90;;;19.80;99.90;;;;;;5092588;28;20240;-66
2022/05/01 07:27:04;;;;;;;8.43;2.37;;;19.80;99.90;;;;;;5094231;28;20185;-66
2022/05/01 07:29:32;;;;;;;10.23;2.23;;;19.70;99.90;;;;;;5093805;28;20189;-67
2022/05/01 07:31:59;;;;;;;10.40;2.10;;;19.60;99.90;;;;;;5091173;28;20179;-65
2022/05/01 07:34:27;;;;;;;8.33;2.20;;;19.50;99.90;;;;;;5094124;28;20311;-65
2022/05/01 07:36:56;;;;;;;7.63;1.87;;;19.40;99.90;;;;;;5094005;28;20195;-65
2022/05/01 07:39:23;;;;;;;10.30;2.53;;;19.30;99.90;;;;;;5094132;28;20187;-64
2022/05/01 07:41:51;;;;;;;7.00;2.17;;;19.20;99.90;;;;;;5093989;28;20188;-65
2022/05/01 07:44:19;;;;;;;8.53;2.60;;;19.10;99.90;;;;;;5094101;28;20665;-66
2022/05/01 07:46:47;;;;;;;13.63;2.17;;;19.10;99.90;;;;;;5094201;28;20176;-65
2022/05/01 07:49:15;;;;;;;8.93;2.57;;;19.00;99.90;;;;;;5093697;28;20213;-65
2022/05/01 07:51:42;;;;;;;11.33;2.27;;;18.90;99.90;;;;;;5094239;28;20179;-66
2022/05/01 07:54:10;;;;;;;8.17;2.87;;;18.80;99.90;;;;;;5093764;28;20306;-65
2022/05/01 07:56:38;;;;;;;9.70;3.00;;;18.70;99.90;;;;;;5094021;28;20182;-64
2022/05/01 07:59:08;;;;;;;10.37;2.70;;;18.60;99.90;;;;;;5093864;28;20559;-64
2022/05/01 08:01:36;;;;;;;8.53;2.53;;;18.60;99.90;;;;;;5093554;28;20636;-66
2022/05/01 08:06:50;;;;;;;13.73;2.60;;;18.60;99.90;;;;;;5093897;28;20243;-66
2022/05/01 08:09:18;;;;;;;6.10;2.77;;;18.40;99.90;;;;;;5093449;28;20190;-66
2022/05/01 08:11:46;;;;;;;7.00;2.50;;;18.30;99.90;;;;;;5091449;28;20182;-66
2022/05/01 08:14:13;;;;;;;7.87;2.20;;;18.20;99.90;;;;;;5093433;28;20179;-67
2022/05/01 08:16:42;;;;;;;12.97;6.30;;;18.10;99.90;;;;;;5094206;28;20206;-67
2022/05/01 08:21:55;;;;;;;9.43;4.53;;;17.80;99.90;;;;;;5092814;28;20554;-67
2022/05/01 08:24:22;;;;;;;12.50;4.30;;;17.70;99.90;;;;;;5094021;28;20215;-67
2022/05/01 08:26:50;;;;;;;7.83;4.10;;;17.60;99.90;;;;;;5094419;28;20191;-67
2022/05/01 08:29:19;;;;;;;9.87;4.33;;;17.50;99.90;;;;;;5094785;28;20544;-67
2022/05/01 08:31:47;;;;;;;8.07;3.80;;;17.50;99.90;;;;;;5086175;28;20180;-67
2022/05/01 08:34:16;;;;;;;9.97;3.70;;;17.40;99.90;;;;;;5086898;28;20175;-68
2022/05/01 08:36:45;;;;;;;15.43;3.73;;;17.40;99.90;;;;;;5094144;28;20570;-67
2022/05/01 08:39:13;;;;;;;8.13;3.83;;;17.30;99.90;;;;;;5072832;28;20531;-67
2022/05/01 08:41:42;;;;;;;14.87;3.80;;;17.20;99.90;;;;;;5074023;28;20187;-67
2022/05/01 08:44:14;;;;;;;8.43;4.07;;;17.10;99.90;;;;;;5073776;28;20222;-68
2022/05/01 08:46:56;;;;;;;7.70;3.80;;;17.00;99.90;;;;;;5073821;28;20172;-68
2022/05/01 08:49:25;;;;;;;9.27;3.27;;;17.00;99.90;;;;;;5077622;28;20187;-67
2022/05/01 08:51:54;;;;;;;8.67;2.93;;;16.90;99.90;;;;;;5092621;28;20321;-68
2022/05/01 08:54:24;;;;;;;12.33;3.90;;;16.80;99.90;;;;;;5093516;28;20237;-67
2022/05/01 08:56:52;;;;;;;10.33;3.40;;;16.70;99.90;;;;;;5094039;28;20260;-68
2022/05/01 08:59:20;;;;;;;9.90;3.33;;;16.70;99.90;;;;;;5093734;28;20269;-66
2022/05/01 09:01:48;;;;;;;7.20;3.10;;;16.60;99.90;;;;;;5093598;28;20187;-67
2022/05/01 09:04:16;;;;;;;4.90;2.77;;;16.50;99.90;;;;;;5093561;28;20207;-68
2022/05/01 09:06:45;;;;;;;12.90;3.40;;;16.40;99.90;;;;;;5092487;28;20534;-68
2022/05/01 09:09:23;;;;;;;6.83;3.43;;;16.40;99.90;;;;;;5093632;28;20221;-67
2022/05/01 09:14:40;;;;;;;10.33;3.20;;;16.30;99.90;;;;;;5093659;28;20228;-68
2022/05/01 09:17:19;;;;;;;8.83;3.20;;;16.30;99.90;;;;;;5093359;28;20180;-67
2022/05/01 09:19:51;;;;;;;9.87;3.03;;;16.20;99.90;;;;;;5093472;28;20695;-68
2022/05/01 09:22:20;;;;;;;10.50;3.77;;;16.20;99.90;;;;;;5093496;28;20178;-68
2022/05/01 09:24:54;;;;;;;9.77;3.13;;;16.10;99.90;;;;;;5093597;28;20171;-67
2022/05/01 09:27:32;;;;;;;11.20;3.47;;;16.10;99.90;;;;;;5092734;28;20176;-68
2022/05/01 09:30:21;;;;;;;7.53;2.77;;;16.10;99.90;;;;;;5093585;28;20178;-68
2022/05/01 09:32:49;;;;;;;6.87;3.50;;;16.00;99.90;;;;;;5093579;28;20176;-68
2022/05/01 09:35:37;;;;;;;7.60;3.40;;;15.90;99.90;;;;;;5093545;28;20262;-68
2022/05/01 09:38:22;;;;;;;7.40;4.30;;;15.90;99.90;;;;;;5092926;28;20186;-69
2022/05/01 09:41:00;;;;;;;10.27;4.63;;;15.90;99.90;;;;;;5093392;28;20171;-68
2022/05/01 09:43:38;;;;;;;8.43;5.03;;;15.80;99.90;;;;;;5091070;28;20229;-68
2022/05/01 09:46:14;;;;;;;8.00;5.23;;;15.80;99.90;;;;;;5092986;28;20273;-68
2022/05/01 09:49:03;;;;;;;8.57;4.30;;;15.70;99.90;;;;;;5091834;28;20187;-67
2022/05/01 09:51:33;;;;;;;11.47;4.00;;;15.70;99.90;;;;;;5093007;28;20179;-67
2022/05/01 09:54:03;;;;;;;10.80;4.73;;;15.60;99.90;;;;;;5092842;28;20185;-66
2022/05/01 09:56:47;;;;;;;7.47;4.20;;;15.60;99.90;;;;;;5093149;28;20182;-66
2022/05/01 09:59:16;;;;;;;11.60;3.63;;;15.60;99.90;;;;;;5072891;28;20194;-67
2022/05/01 10:02:03;;;;;;;10.67;4.20;;;15.50;99.90;;;;;;5072783;28;20168;-67
2022/05/01 10:04:36;;;;;;;12.17;4.47;;;15.50;99.90;;;;;;5072673;28;20276;-68
2022/05/01 10:07:06;;;;;;;11.53;4.43;;;15.50;99.90;;;;;;5072739;28;20179;-67
2022/05/01 10:09:36;;;;;;;12.53;4.37;;;15.40;99.90;;;;;;5072841;28;20544;-67
2022/05/01 10:12:12;;;;;;;11.27;4.53;;;15.40;99.90;;;;;;5073088;28;20172;-67
2022/05/01 10:14:39;;;;;;;10.90;3.83;;;15.40;99.90;;;;;;5072776;28;20168;-67
2022/05/01 10:17:08;;;;;;;13.03;4.80;;;15.40;99.90;;;;;;5072931;28;20183;-67
2022/05/01 10:19:37;;;;;;;19.03;5.47;;;15.40;99.90;;;;;;5082274;28;20179;-66
2022/05/01 10:22:06;;;;;;;13.23;4.80;;;15.30;99.90;;;;;;5092529;28;20228;-67
2022/05/01 10:24:34;;;;;;;8.27;4.40;;;15.30;99.90;;;;;;5092670;28;20215;-67
2022/05/01 10:27:49;;;;;;;16.00;4.70;;;15.20;99.90;;;;;;5092409;28;20175;-67
2022/05/01 10:33:08;;;;;;;11.30;4.60;;;15.10;99.90;;;;;;5093176;28;20222;-67
2022/05/01 10:35:57;;;;;;;10.93;5.07;;;15.10;99.90;;;;;;5092924;28;20179;-67
2022/05/01 10:38:58;;;;;;;10.87;5.20;;;15.10;99.90;;;;;;5093503;28;20649;-68
2022/05/01 10:41:26;;;;;;;12.07;5.20;;;15.10;99.90;;;;;;5096497;28;20179;-67
2022/05/01 10:44:02;;;;;;;9.57;5.33;;;15.10;99.90;;;;;;5094944;28;20223;-68
2022/05/01 10:46:32;;;;;;;8.90;4.60;;;15.00;99.90;;;;;;5094780;28;20266;-68
2022/05/01 10:49:36;;;;;;;13.73;5.53;;;15.00;99.90;;;;;;5096454;28;20384;-67
2022/05/01 10:52:25;;;;;;;9.87;4.90;;;15.00;99.90;;;;;;5096565;28;20190;-68
2022/05/01 10:55:00;;;;;;;11.00;5.27;;;15.00;99.90;;;;;;5096130;28;20230;-66
2022/05/01 10:57:28;;;;;;;10.53;5.27;;;15.00;99.90;;;;;;5096403;28;20690;-68
2022/05/01 11:00:15;;;;;;;9.90;4.97;;;15.10;99.90;;;;;;5096257;28;20234;-68
2022/05/01 11:02:49;;;;;;;10.23;5.03;;;15.20;99.90;;;;;;5095820;28;20293;-66
2022/05/01 11:05:42;;;;;;;15.47;5.23;;;15.30;99.90;;;;;;5095688;28;20183;-68
2022/05/01 11:08:19;;;;;;;9.20;5.30;;;15.50;99.90;;;;;;5093003;28;20184;-68
2022/05/01 11:10:48;;;;;;;13.43;6.00;;;15.60;99.90;;;;;;5095688;28;20174;-67
2022/05/01 11:13:18;;;;;;;11.53;5.73;;;15.70;99.90;;;;;;5096081;28;20182;-67
2022/05/01 11:15:47;;;;;;;10.60;5.53;;;15.70;99.90;;;;;;5095619;28;20183;-67
2022/05/01 11:18:16;;;;;;;10.90;5.10;;;15.80;99.90;;;;;;5095335;28;20164;-67
2022/05/01 11:20:44;;;;;;;13.20;5.40;;;15.90;99.90;;;;;;5092635;28;20197;-68
2022/05/01 11:23:30;;;;;;;11.77;5.33;;;16.00;99.90;;;;;;5093817;28;20268;-67
2022/05/01 11:26:29;;;;;;;13.67;5.37;;;16.00;99.90;;;;;;5094870;28;20179;-68
2022/05/01 11:29:19;;;;;;;9.43;4.53;;;16.10;99.90;;;;;;5072803;28;20196;-67
2022/05/01 11:31:48;;;;;;;10.27;5.07;;;16.20;99.90;;;;;;5093700;28;20207;-67
2022/05/01 11:34:20;;;;;;;14.60;5.13;;;16.20;99.90;;;;;;5075329;28;20660;-67
2022/05/01 11:36:55;;;;;;;13.87;4.33;;;16.30;99.90;;;;;;5076320;28;20164;-68
2022/05/01 11:39:23;;;;;;;11.20;4.73;;;16.30;99.90;;;;;;5094993;28;20619;-67
2022/05/01 11:42:02;;;;;;;13.17;4.90;;;16.20;99.90;;;;;;5093645;28;20199;-68
2022/05/01 11:44:30;;;;;;;12.23;5.00;;;16.10;99.90;;;;;;5095484;28;20238;-67
2022/05/01 11:46:58;;;;;;;12.00;5.13;;;16.00;99.90;;;;;;5095363;28;20175;-66
2022/05/01 11:49:29;;;;;;;10.87;5.30;;;15.90;99.90;;;;;;5095405;28;20632;-68
2022/05/01 11:51:59;;;;;;;11.90;4.67;;;15.80;99.90;;;;;;5094800;28;20256;-68
2022/05/01 11:54:31;;;;;;;11.10;5.70;;;15.70;99.90;;;;;;5095031;28;20251;-66
2022/05/01 12:02:32;;;;;;;9.87;4.67;;;15.50;99.90;;;;;;5094449;28;20186;-68
2022/05/01 12:05:04;;;;;;;12.30;4.77;;;15.40;99.90;;;;;;5095065;28;20205;-66
2022/05/01 12:07:32;;;;;;;11.43;5.03;;;15.30;99.90;;;;;;5095200;28;20175;-67
2022/05/01 12:10:00;;;;;;;10.37;4.20;;;15.20;99.90;;;;;;5095035;28;20175;-67
2022/05/01 12:12:30;;;;;;;9.77;4.17;;;15.20;99.90;;;;;;5094892;28;20167;-66
2022/05/01 12:14:58;;;;;;;9.33;4.30;;;15.10;99.90;;;;;;5095007;28;20175;-69
2022/05/01 12:17:26;;;;;;;9.03;4.50;;;15.10;99.90;;;;;;5094957;28;20179;-67
2022/05/01 12:19:54;;;;;;;11.80;4.70;;;15.10;99.90;;;;;;5094781;28;20172;-67
2022/05/01 12:22:26;;;;;;;11.57;3.77;;;15.00;99.90;;;;;;5094589;28;20621;-67
2022/05/01 12:24:55;;;;;;;12.50;4.63;;;14.90;99.90;;;;;;5094730;28;20194;-68
2022/05/01 12:27:26;;;;;;;10.93;4.30;;;14.90;99.90;;;;;;5094831;28;20182;-68
2022/05/01 12:29:55;;;;;;;9.63;4.27;;;14.90;99.90;;;;;;5095036;28;20232;-68
2022/05/01 12:32:24;;;;;;;11.93;4.60;;;14.90;99.90;;;;;;5093156;28;20210;-68
2022/05/01 12:34:52;;;;;;;9.77;4.50;;;14.80;99.90;;;;;;5093903;28;20284;-66
2022/05/01 12:37:34;;;;;;;8.53;4.13;;;14.80;99.90;;;;;;5093853;28;20228;-67
2022/05/01 12:40:12;;;;;;;11.60;4.43;;;14.80;99.90;;;;;;5093271;28;20635;-67
2022/05/01 12:45:41;;;;;;;9.93;4.23;;;14.90;99.90;;;;;;5094074;28;20263;-67
2022/05/01 12:48:13;;;;;;;12.93;4.40;;;14.90;99.90;;;;;;5094273;28;20601;-67
2022/05/01 12:50:43;;;;;;;9.20;4.13;;;14.90;99.90;;;;;;5094336;28;20663;-67
2022/05/01 12:53:28;;;;;;;9.70;4.53;;;14.90;99.90;;;;;;5093794;28;20182;-68
2022/05/01 12:56:02;;;;;;;10.47;4.57;;;15.00;99.90;;;;;;5094019;28;20692;-68
2022/05/01 12:58:32;;;;;;;12.20;4.97;;;14.90;99.90;;;;;;5093359;28;20174;-68
2022/05/01 13:01:04;;;;;;;7.40;4.23;;;14.90;99.90;;;;;;5091964;28;20183;-67
2022/05/01 13:03:38;;;;;;;11.23;4.37;;;14.90;99.90;;;;;;5093723;28;20211;-66
2022/05/01 13:06:13;;;;;;;9.40;4.33;;;14.80;99.90;;;;;;5093857;28;20261;-66
2022/05/01 13:08:44;;;;;;;7.97;3.90;;;14.80;99.90;;;;;;5093891;28;20175;-67
2022/05/01 13:11:16;;;;;;;10.83;4.63;;;14.80;99.90;;;;;;5093571;28;20178;-67
2022/05/01 13:13:52;;;;;;;11.83;4.23;;;14.80;99.90;;;;;;5093854;28;20271;-67
2022/05/01 13:16:39;;;;;;;7.90;3.87;;;14.80;99.90;;;;;;5093557;28;20565;-67
2022/05/01 13:19:21;;;;;;;12.53;4.57;;;14.90;99.90;;;;;;5093472;28;20179;-67
2022/05/01 13:21:49;;;;;;;11.03;5.07;;;14.90;99.90;;;;;;5093632;28;20628;-67
2022/05/01 13:24:34;;;;;;;10.93;4.87;;;14.90;99.90;;;;;;5092997;28;20202;-67
2022/05/01 13:27:04;;;;;;;9.53;4.20;;;14.90;99.90;;;;;;5093684;28;20203;-68
2022/05/01 13:29:33;;;;;;;7.87;3.90;;;14.80;99.90;;;;;;5094041;28;20186;-67
2022/05/01 13:32:03;;;;;;;9.10;4.30;;;14.80;99.90;;;;;;5093283;28;20220;-67
2022/05/01 13:34:31;;;;;;;8.63;3.97;;;14.80;99.90;;;;;;5093619;28;20195;-66
2022/05/01 13:37:02;;;;;;;9.03;4.03;;;14.70;99.90;;;;;;5092991;28;20664;-67
2022/05/01 13:45:01;;;;;;;10.60;3.73;;;14.60;99.90;;;;;;5093498;28;20667;-67